Accueil
METAR-TAF:

METAR-TAF

Aéroports :

Newport Municipal Airport

Newport, Oregon, États-Unis

latitude: 44-34-49N, longitude: 124-03-29W, altitude: 49 m

Observation

Le bulletin a été fait il y a 11 minutes, à 18:15 UTC
Vent 6 kt de est
Température 10°C
Humidité 62%
Pression 1020 hPa
Visibilité: 16.1 km
Ciel clair

METAR: KONP 191815Z AUTO 08006KT 10SM CLR 10/03 A3012 RMK AO2

Heure: 10:26 (18:26 UTC)

Prévision

Le bulletin a été fait il y a 1 heure et 0 minutes, à 17:26 UTC
Prévision valable du 19 à 18 UTC au 20 à 18 UTC
Vent 5 kt de est
Visibilité: 10 km
Ciel clair
A partir de 20 à 0300 UTC
Vent 5 kt de est
Visibilité: 10 km
Ciel clair

TAF: KONP 191726Z 1918/2018 09005KT P6SM SKC FM200300 09005KT P6SM SKC

Observations et prévisions météorologiques de plus de 4000 aéroports (messages METAR et TAF).

Les stations disponibles sont représentées par des disques jaunes et rouges sur la carte.

Passer la souris dessus pour voir le nom de la station.

Cliquer dessus pour voir les observations et prévisions météorologiques.

Pour changer de carte: cliquez sur les boutons verts avec une croix noire pour zoomer, sur le bouton vert avec un tiret pour effectuer un zoom arrière, ou sur les flèches vertes pour les cartes adjacentes.


METAR-TAF: